01:13 Rennrad Moetz - Pettnau - Zirl - Kematen - Voels - Radweg - Innsbruck ARZ
Ort Moetz Datum 11.08.2016 06:30:33
Kategorie Rennrad
Distanz 39,16 Kilometer Steigung 80,0 Meter Gefälle -150,0 Meter
Gesamt Zeit 01:12:54 Aktiv 01:12:36 Pause 00:00:18
Durchs. Tempo 32,4 km/h Tempo max. 48,6 km/h Tempo min. 22,0 km/h
Kalorien 0 Durchs. HF 138 BPM HF max. 167 BPM
Wetter 10 °C Clouds Min/Max: 9,0 °C/10,0 °C; Druck: 1024,6 mbar; Rel. Feuchte: 92,2%; Taupunkt: 8,2 °C; Windgeschwindigkeit: 0,5 km/h; Niederschlag: 0,0mm
Ausrüstung Bontrager - RXL Road
Continental - Grand Prix 4000 S II 25-622
Poison - Rennrad
Shimano - HG CN-7901 Dura Ace
Notiz Moetz - Pettnau - Zirl - Kematen - Voels - Radweg - Innsbruck ARZ ... nass, kein Regen, windstill bzw. leichter Gegenwind, flott ... garmin connect
Splits
Distanz (km) Gesamt Zeit Split Zeit Split Tempo Split Tempo Höhenprofil (m)
1,00 00:02:08 00:02:08 00:02:08 28,1 -10,06
2,00 00:04:07 00:01:59 00:01:59 30,1 0,48
3,00 00:06:00 00:01:52 00:01:53 31,9 -0,55
4,00 00:07:53 00:01:52 00:01:53 32,0 -3,95
5,00 00:09:44 00:01:51 00:01:51 32,4 0,56
6,00 00:11:36 00:01:52 00:01:52 32,1 -0,29
7,00 00:13:26 00:01:49 00:01:50 32,7 -0,90
8,00 00:15:16 00:01:50 00:01:50 32,7 -7,65
9,00 00:17:06 00:01:49 00:01:50 32,8 -2,81
10,00 00:18:58 00:01:51 00:01:52 32,2 0,79
11,00 00:20:46 00:01:47 00:01:48 33,4 0,51
12,00 00:22:35 00:01:49 00:01:50 32,9 -6,46
13,00 00:24:25 00:01:49 00:01:50 32,8 -0,16
14,00 00:26:23 00:01:58 00:01:58 30,4 0,30
15,00 00:28:18 00:01:54 00:01:55 31,4 -5,36
16,00 00:30:03 00:01:44 00:01:45 34,4 3,96
17,00 00:31:52 00:01:49 00:01:50 32,8 -7,99
18,00 00:33:42 00:01:49 00:01:49 32,9 0,00
19,00 00:35:31 00:01:48 00:01:49 33,1 -0,55
20,00 00:37:21 00:01:50 00:01:50 32,7 -0,78
21,00 00:39:12 00:01:51 00:01:51 32,4 -3,42
22,00 00:40:59 00:01:47 00:01:47 33,5 -4,12
23,00 00:42:56 00:01:56 00:01:57 30,9 11,83
24,00 00:44:45 00:01:49 00:01:49 33,0 -0,26
25,00 00:47:05 00:02:20 00:02:21 25,6 15,89
26,00 00:48:48 00:01:42 00:01:43 35,0 -9,66
27,00 00:50:14 00:01:25 00:01:26 42,1 -30,29
28,00 00:51:54 00:01:40 00:01:41 35,8 3,81
29,00 00:53:53 00:01:58 00:01:58 30,4 0,80
30,00 00:55:40 00:01:47 00:01:47 33,5 -2,48
31,00 00:57:19 00:01:38 00:01:39 36,4 -3,23
32,00 00:59:03 00:01:43 00:01:44 34,8 -1,11
33,00 01:00:50 00:01:47 00:01:48 33,4 1,92
34,00 01:02:56 00:02:06 00:02:06 28,6 -7,89
35,00 01:04:42 00:01:45 00:01:46 34,0 -3,67
36,00 01:06:30 00:01:47 00:01:48 33,5 -2,01
37,00 01:08:15 00:01:45 00:01:46 34,1 -1,91
38,00 01:10:11 00:01:55 00:01:56 31,1 0,36
39,00 01:12:12 00:02:01 00:02:01 29,7 6,77
39,18 01:12:36 00:00:23 00:02:10 27,7 0,00